createdAt,value
2018-12-08T00:01:49.127Z,8.33
2018-12-08T00:04:23.271Z,6.12
2018-12-08T00:07:00.396Z,10.08
2018-12-08T00:09:38.301Z,4.60
2018-12-08T00:12:09.371Z,16.52
2018-12-08T00:14:43.422Z,13.50
2018-12-08T00:17:16.755Z,11.28
2018-12-08T00:19:50.076Z,8.43
2018-12-08T00:22:24.190Z,5.95
2018-12-08T00:24:58.268Z,8.50
2018-12-08T00:27:32.314Z,9.55
2018-12-08T00:30:02.891Z,5.05
2018-12-08T00:32:36.958Z,6.62
2018-12-08T00:38:05.963Z,8.15
2018-12-08T00:40:35.108Z,7.97
2018-12-08T00:43:09.362Z,10.82
2018-12-08T00:45:42.712Z,6.75
2018-12-08T00:48:11.993Z,12.68
2018-12-08T00:50:43.006Z,6.55
2018-12-08T00:53:13.777Z,8.38
2018-12-08T00:55:45.381Z,13.03
2018-12-08T00:58:18.531Z,7.00
2018-12-08T01:00:49.793Z,6.15
2018-12-08T01:03:23.655Z,7.92
2018-12-08T01:06:01.207Z,7.95
2018-12-08T01:08:32.464Z,6.15
2018-12-08T01:11:06.246Z,7.17
2018-12-08T01:13:46.581Z,8.70
2018-12-08T01:16:20.014Z,10.75
2018-12-08T01:21:46.949Z,6.00
2018-12-08T01:24:24.549Z,13.15
2018-12-08T01:27:05.288Z,7.92
2018-12-08T01:29:35.712Z,7.95
2018-12-08T01:32:16.142Z,2.58
2018-12-08T01:34:49.565Z,3.42
2018-12-08T01:37:30.214Z,6.17
2018-12-08T01:42:29.753Z,5.58
2018-12-08T01:45:00.507Z,5.20
2018-12-08T01:47:51.135Z,11.22
2018-12-08T01:50:21.514Z,5.95
2018-12-08T01:53:02.064Z,5.87
2018-12-08T01:55:32.584Z,3.35
2018-12-08T01:58:03.526Z,5.17
2018-12-08T02:00:39.261Z,2.42
2018-12-08T02:03:16.459Z,3.83
2018-12-08T02:05:45.516Z,3.62
2018-12-08T02:08:19.481Z,6.85
2018-12-08T02:10:53.515Z,5.87
2018-12-08T02:13:23.972Z,7.00
2018-12-08T02:15:55.240Z,4.83
2018-12-08T02:18:26.360Z,3.75
2018-12-08T02:20:57.517Z,2.12
2018-12-08T02:23:34.569Z,3.62
2018-12-08T02:26:04.906Z,3.92
2018-12-08T02:28:33.914Z,4.17
2018-12-08T02:31:04.897Z,2.87
2018-12-08T02:33:36.027Z,7.65
2018-12-08T02:36:16.105Z,1.57
2018-12-08T02:38:46.623Z,1.55
2018-12-08T02:43:56.367Z,2.87
2018-12-08T02:46:33.576Z,2.02
2018-12-08T02:49:07.585Z,4.03
2018-12-08T02:51:38.803Z,3.42
2018-12-08T02:54:07.949Z,3.75
2018-12-08T02:56:48.370Z,3.17
2018-12-08T02:59:21.719Z,2.37
2018-12-08T03:01:52.261Z,3.20
2018-12-08T03:04:26.057Z,3.35
2018-12-08T03:07:08.599Z,2.17
2018-12-08T03:09:49.428Z,3.52
2018-12-08T03:12:19.997Z,5.40
2018-12-08T03:15:00.965Z,3.35
2018-12-08T03:17:34.186Z,3.65
2018-12-08T03:20:04.186Z,1.22
2018-12-08T03:22:44.860Z,2.02
2018-12-08T03:25:15.500Z,1.70
2018-12-08T03:27:55.805Z,4.95
2018-12-08T03:30:35.998Z,3.62
2018-12-08T03:33:13.252Z,2.58
2018-12-08T03:35:42.393Z,2.52
2018-12-08T03:38:22.938Z,4.28
2018-12-08T03:40:56.083Z,4.17
2018-12-08T03:43:25.397Z,7.58
2018-12-08T03:46:05.809Z,3.00
2018-12-08T03:48:45.975Z,6.33
2018-12-08T03:51:19.313Z,3.77
2018-12-08T03:54:07.162Z,8.40
2018-12-08T03:56:55.983Z,5.00
2018-12-08T03:59:36.482Z,3.02
2018-12-08T04:02:09.875Z,2.33
2018-12-08T04:04:50.687Z,2.98
2018-12-08T04:07:30.573Z,5.75
2018-12-08T04:10:05.262Z,5.60
2018-12-08T04:12:47.672Z,3.10
2018-12-08T04:15:21.059Z,4.50
2018-12-08T04:17:50.480Z,4.40
2018-12-08T04:20:39.052Z,4.20
2018-12-08T04:23:12.573Z,4.25
2018-12-08T04:25:41.797Z,8.20
2018-12-08T04:28:22.217Z,3.10
2018-12-08T04:30:50.807Z,6.25
2018-12-08T04:33:31.260Z,2.70
2018-12-08T04:36:05.289Z,11.18
2018-12-08T04:38:39.229Z,8.40
2018-12-08T04:41:10.346Z,3.90
2018-12-08T04:43:39.265Z,5.60
2018-12-08T04:46:12.788Z,3.83
2018-12-08T04:48:46.680Z,9.88
2018-12-08T04:51:17.967Z,3.08
2018-12-08T04:53:48.742Z,9.50
2018-12-08T04:56:22.336Z,2.27
2018-12-08T04:58:53.377Z,2.62
2018-12-08T05:01:24.216Z,4.30
2018-12-08T05:04:15.070Z,2.02
2018-12-08T05:06:44.032Z,1.45
2018-12-08T05:09:21.612Z,3.12
2018-12-08T05:11:50.050Z,3.45
2018-12-08T05:14:30.512Z,5.08
2018-12-08T05:17:10.569Z,1.92
2018-12-08T05:19:40.998Z,2.33
2018-12-08T05:22:18.001Z,6.97
2018-12-08T05:25:04.242Z,2.72
2018-12-08T05:27:44.839Z,4.55
2018-12-08T05:30:13.416Z,3.35
2018-12-08T05:32:44.431Z,2.47
2018-12-08T05:35:18.293Z,2.05
2018-12-08T05:37:51.889Z,4.30
2018-12-08T05:40:25.693Z,3.05
2018-12-08T05:43:12.863Z,1.95
2018-12-08T05:45:46.579Z,1.65
2018-12-08T05:48:20.505Z,3.20
2018-12-08T05:50:51.579Z,2.45
2018-12-08T05:53:32.006Z,2.42
2018-12-08T05:56:05.325Z,1.50
2018-12-08T05:58:34.470Z,2.30
2018-12-08T06:01:08.202Z,1.55
2018-12-08T06:03:44.171Z,4.00
2018-12-08T06:06:15.401Z,1.92
2018-12-08T06:08:53.284Z,1.10
2018-12-08T06:11:23.690Z,3.15
2018-12-08T06:14:01.165Z,2.75
2018-12-08T06:16:41.593Z,4.30
2018-12-08T06:19:10.407Z,5.40
2018-12-08T06:21:41.457Z,2.15
2018-12-08T06:24:21.754Z,1.47
2018-12-08T06:26:55.217Z,1.95
2018-12-08T06:29:35.820Z,2.72
2018-12-08T06:32:06.480Z,2.67
2018-12-08T06:34:46.376Z,2.27
2018-12-08T06:37:17.017Z,4.40
2018-12-08T06:39:45.890Z,8.10
2018-12-08T06:42:19.849Z,3.08
2018-12-08T06:45:00.566Z,2.45
2018-12-08T06:47:31.827Z,2.87
2018-12-08T06:50:00.665Z,4.70
2018-12-08T06:52:30.012Z,3.15
2018-12-08T06:54:59.159Z,2.95
2018-12-08T06:57:27.701Z,1.52
2018-12-08T07:00:01.476Z,3.20
2018-12-08T07:05:24.696Z,2.98
2018-12-08T07:07:52.181Z,3.37
2018-12-08T07:10:19.775Z,3.08
2018-12-08T07:12:47.208Z,3.65
2018-12-08T07:15:14.648Z,1.85
2018-12-08T07:17:42.071Z,5.78
2018-12-08T07:20:09.541Z,2.75
2018-12-08T07:22:36.988Z,2.67
2018-12-08T07:25:04.462Z,3.30
2018-12-08T07:27:31.995Z,2.08
2018-12-08T07:30:00.549Z,3.27
2018-12-08T07:32:28.075Z,3.25
2018-12-08T07:34:55.494Z,2.67
2018-12-08T07:37:22.949Z,3.62
2018-12-08T07:42:52.884Z,2.58
2018-12-08T07:45:20.335Z,1.75
2018-12-08T07:47:47.787Z,1.20
2018-12-08T07:50:15.217Z,1.17
2018-12-08T07:52:42.695Z,1.32
2018-12-08T07:58:06.310Z,2.25
2018-12-08T08:00:33.739Z,1.82
2018-12-08T08:03:01.172Z,3.05
2018-12-08T08:05:28.597Z,2.15
2018-12-08T08:07:56.034Z,0.93
2018-12-08T08:10:23.543Z,2.55
2018-12-08T08:16:08.533Z,1.15
2018-12-08T08:18:48.530Z,1.55
2018-12-08T08:21:15.968Z,2.77
2018-12-08T08:23:43.403Z,1.55
2018-12-08T08:26:10.866Z,0.93
2018-12-08T08:28:44.065Z,3.42
2018-12-08T08:31:25.502Z,0.80
2018-12-08T08:34:12.727Z,1.00
2018-12-08T08:36:40.172Z,7.90
2018-12-08T08:39:07.614Z,0.60
2018-12-08T08:41:35.059Z,2.92
2018-12-08T08:44:09.115Z,0.75
2018-12-08T08:49:34.251Z,0.85
2018-12-08T08:52:05.142Z,1.50
2018-12-08T08:57:45.899Z,1.77
2018-12-08T09:00:13.455Z,0.60
2018-12-08T09:02:40.907Z,1.45
2018-12-08T09:05:08.379Z,1.50
2018-12-08T09:07:35.846Z,1.92
2018-12-08T09:10:08.018Z,1.02
2018-12-08T09:12:35.473Z,1.10
2018-12-08T09:17:49.571Z,0.80
2018-12-08T09:20:23.097Z,1.98
2018-12-08T09:22:54.262Z,0.85
2018-12-08T09:25:23.250Z,0.60
2018-12-08T09:27:57.146Z,2.22
2018-12-08T09:30:24.637Z,0.57
2018-12-08T09:32:53.524Z,1.07
2018-12-08T09:35:33.450Z,0.50
2018-12-08T09:40:57.224Z,0.50
2018-12-08T09:46:20.318Z,0.98
2018-12-08T09:57:37.122Z,0.50
2018-12-08T10:00:26.204Z,0.90
2018-12-08T10:02:59.378Z,1.10
2018-12-08T10:05:33.121Z,1.10
2018-12-08T10:08:03.765Z,0.60
2018-12-08T10:10:34.619Z,0.70
2018-12-08T10:13:03.737Z,0.50
2018-12-08T10:15:37.689Z,0.60
2018-12-08T10:18:08.084Z,1.25
2018-12-08T10:20:38.471Z,1.27
2018-12-08T10:23:09.507Z,0.78
2018-12-08T10:25:40.601Z,0.80
2018-12-08T10:28:09.501Z,0.88
2018-12-08T10:30:40.708Z,0.72
2018-12-08T10:33:11.813Z,0.60
2018-12-08T10:35:42.875Z,2.15
2018-12-08T10:38:13.900Z,3.37
2018-12-08T10:40:44.871Z,0.78
2018-12-08T10:43:13.908Z,0.65
2018-12-08T10:45:47.733Z,3.72
2018-12-08T10:48:23.463Z,1.70
2018-12-08T10:50:57.418Z,3.08
2018-12-08T10:53:27.959Z,2.58
2018-12-08T10:55:59.090Z,1.95
2018-12-08T10:58:30.636Z,2.60
2018-12-08T11:03:57.504Z,10.45
2018-12-08T11:06:35.367Z,2.45
2018-12-08T11:09:09.759Z,1.98
2018-12-08T11:11:41.106Z,7.35
2018-12-08T11:14:11.995Z,0.80
2018-12-08T11:16:40.971Z,0.93
2018-12-08T11:19:15.044Z,4.12
2018-12-08T11:21:45.669Z,2.58
2018-12-08T11:24:16.838Z,3.20
2018-12-08T11:26:48.726Z,3.12
2018-12-08T11:29:21.985Z,3.72
2018-12-08T11:31:53.759Z,3.55
2018-12-08T11:34:24.607Z,4.28
2018-12-08T11:37:00.564Z,5.45
2018-12-08T11:39:31.877Z,4.70
2018-12-08T11:42:03.832Z,2.58
2018-12-08T11:44:35.112Z,1.82
2018-12-08T11:47:15.338Z,8.63
2018-12-08T11:52:39.474Z,6.25
2018-12-08T11:55:09.982Z,6.97
2018-12-08T11:57:41.704Z,6.90
2018-12-08T12:00:10.922Z,4.50
2018-12-08T12:02:45.040Z,6.97
2018-12-08T12:05:15.592Z,5.62
2018-12-08T12:07:46.680Z,5.62
2018-12-08T12:10:15.303Z,11.97
2018-12-08T12:12:42.773Z,5.28
2018-12-08T12:15:16.117Z,6.15
2018-12-08T12:17:49.383Z,12.00
2018-12-08T12:22:53.431Z,4.80
2018-12-08T12:25:22.245Z,15.15
2018-12-08T12:27:51.030Z,5.95
2018-12-08T12:30:22.222Z,8.75
2018-12-08T12:32:52.886Z,6.20
2018-12-08T12:35:26.630Z,8.68
2018-12-08T12:37:55.091Z,6.42
2018-12-08T12:40:29.021Z,8.08
2018-12-08T12:43:02.340Z,16.77
2018-12-08T12:45:33.537Z,8.00
2018-12-08T12:48:07.372Z,9.98
2018-12-08T12:50:36.552Z,7.12
2018-12-08T12:53:07.531Z,14.53
2018-12-08T12:55:38.533Z,6.25
2018-12-08T12:58:09.716Z,4.45
2018-12-08T13:00:40.754Z,11.78
2018-12-08T13:03:11.736Z,5.90
2018-12-08T13:05:42.775Z,16.50
2018-12-08T13:08:14.804Z,10.75
2018-12-08T13:10:43.847Z,3.85
2018-12-08T13:13:14.867Z,7.72
2018-12-08T13:15:45.820Z,6.05
2018-12-08T13:18:19.578Z,5.10
2018-12-08T13:20:50.555Z,7.87
2018-12-08T13:23:24.116Z,6.10
2018-12-08T13:25:53.272Z,7.42
2018-12-08T13:28:27.255Z,6.92
2018-12-08T13:30:58.139Z,6.22
2018-12-08T13:33:32.082Z,5.03
2018-12-08T13:36:04.484Z,9.25
2018-12-08T13:38:42.091Z,9.15
2018-12-08T13:41:12.422Z,14.58
2018-12-08T13:43:47.352Z,4.95
2018-12-08T13:46:18.271Z,7.15
2018-12-08T13:48:49.224Z,10.90
2018-12-08T13:51:23.749Z,6.92
2018-12-08T13:53:52.885Z,6.80
2018-12-08T13:56:30.439Z,7.90
2018-12-08T13:58:59.985Z,9.25
2018-12-08T14:01:34.042Z,5.33
2018-12-08T14:04:06.323Z,7.95
2018-12-08T14:06:37.467Z,5.45
2018-12-08T14:09:08.002Z,7.17
2018-12-08T14:17:35.038Z,12.82
2018-12-08T14:20:26.623Z,6.53
2018-12-08T14:23:07.736Z,6.58
2018-12-08T14:25:41.554Z,6.72
2018-12-08T14:28:14.322Z,10.45
2018-12-08T14:30:54.951Z,8.30
2018-12-08T14:33:28.358Z,6.35
2018-12-08T14:36:02.170Z,6.45
2018-12-08T14:38:41.714Z,9.63
2018-12-08T14:41:21.670Z,8.65
2018-12-08T14:44:03.957Z,5.58
2018-12-08T14:46:57.488Z,7.40
2018-12-08T14:52:40.527Z,9.38
2018-12-08T14:55:27.664Z,7.08
2018-12-08T14:57:58.522Z,9.58
2018-12-08T15:00:29.842Z,5.20
2018-12-08T15:03:09.807Z,11.70
2018-12-08T15:05:44.914Z,19.05
2018-12-08T15:08:18.813Z,16.65
2018-12-08T15:10:50.165Z,9.75
2018-12-08T15:13:23.803Z,9.03
2018-12-08T15:15:54.149Z,10.70
2018-12-08T15:18:25.306Z,8.23
2018-12-08T15:20:59.261Z,8.03
2018-12-08T15:23:33.033Z,12.88
2018-12-08T15:26:06.903Z,11.03
2018-12-08T15:28:35.894Z,12.28
2018-12-08T15:31:06.835Z,14.15
2018-12-08T15:33:41.412Z,7.45
2018-12-08T15:36:22.104Z,10.32
2018-12-08T15:38:59.263Z,6.90
2018-12-08T15:41:30.392Z,9.85
2018-12-08T15:44:04.333Z,7.12
2018-12-08T15:46:35.146Z,6.45
2018-12-08T15:49:12.521Z,4.70
2018-12-08T15:51:46.705Z,9.95
2018-12-08T15:54:21.311Z,8.15
2018-12-08T15:56:52.230Z,8.58
2018-12-08T15:59:29.869Z,9.38
2018-12-08T16:01:57.285Z,10.68
2018-12-08T16:04:28.149Z,10.00
2018-12-08T16:07:03.295Z,6.30
2018-12-08T16:09:32.047Z,20.43
2018-12-08T16:12:01.046Z,15.75
2018-12-08T16:14:31.886Z,9.80
2018-12-08T16:17:13.481Z,16.90
2018-12-08T16:19:44.730Z,10.48
2018-12-08T16:22:12.148Z,7.65
2018-12-08T16:24:41.514Z,11.03
2018-12-08T16:27:21.773Z,10.88
2018-12-08T16:29:53.237Z,24.15
2018-12-08T16:32:31.023Z,13.48
2018-12-08T16:35:05.892Z,13.22
2018-12-08T16:37:36.963Z,10.05
2018-12-08T16:40:10.640Z,5.97
2018-12-08T16:42:39.496Z,8.40
2018-12-08T16:45:10.328Z,18.00
2018-12-08T16:47:39.134Z,11.25
2018-12-08T16:50:10.322Z,16.32
2018-12-08T16:52:43.895Z,9.18
2018-12-08T16:55:14.985Z,8.70
2018-12-08T16:57:43.851Z,17.27
2018-12-08T17:00:17.622Z,10.65
2018-12-08T17:02:48.719Z,15.85
2018-12-08T17:05:22.210Z,9.45
2018-12-08T17:07:53.123Z,6.30
2018-12-08T17:10:26.981Z,9.78
2018-12-08T17:12:58.133Z,8.43
2018-12-08T17:15:29.900Z,3.83
2018-12-08T17:18:03.704Z,14.07
2018-12-08T17:20:34.856Z,10.85
2018-12-08T17:23:05.657Z,8.93
2018-12-08T17:25:36.539Z,9.30
2018-12-08T17:28:07.224Z,15.10
2018-12-08T17:30:37.636Z,17.95
2018-12-08T17:33:09.256Z,12.35
2018-12-08T17:35:41.437Z,7.35
2018-12-08T17:38:15.244Z,7.35
2018-12-08T17:40:49.767Z,11.95
2018-12-08T17:43:21.011Z,8.55
2018-12-08T17:45:54.649Z,6.97
2018-12-08T17:48:25.912Z,5.80
2018-12-08T17:51:00.760Z,5.95
2018-12-08T17:53:31.740Z,7.20
2018-12-08T17:56:00.759Z,3.55
2018-12-08T17:58:34.255Z,5.45
2018-12-08T18:01:05.686Z,5.15
2018-12-08T18:03:40.090Z,5.12
2018-12-08T18:06:11.182Z,8.08
2018-12-08T18:08:42.125Z,4.50
2018-12-08T18:11:13.161Z,4.65
2018-12-08T18:13:41.941Z,2.15
2018-12-08T18:16:17.762Z,2.95
2018-12-08T18:18:51.753Z,9.05
2018-12-08T18:21:21.745Z,4.05
2018-12-08T18:23:55.322Z,5.75
2018-12-08T18:26:24.268Z,6.83
2018-12-08T18:28:57.636Z,4.05
2018-12-08T18:31:26.786Z,3.60
2018-12-08T18:33:55.996Z,1.32
2018-12-08T18:36:29.828Z,4.50
2018-12-08T18:39:00.778Z,2.45
2018-12-08T18:41:38.622Z,1.35
2018-12-08T18:44:09.593Z,2.83
2018-12-08T18:46:40.539Z,1.02
2018-12-08T18:49:11.362Z,1.92
2018-12-08T18:51:45.959Z,1.22
2018-12-08T18:54:17.154Z,1.25
2018-12-08T18:56:46.120Z,2.35
2018-12-08T18:59:14.909Z,4.97
2018-12-08T19:01:45.584Z,0.90
2018-12-08T19:04:14.613Z,0.93
2018-12-08T19:06:50.364Z,1.37
2018-12-08T19:09:23.585Z,1.17
2018-12-08T19:11:54.746Z,0.93
2018-12-08T19:14:28.603Z,3.67
2018-12-08T19:17:03.331Z,1.10
2018-12-08T19:19:36.672Z,0.78
2018-12-08T19:22:07.755Z,1.42
2018-12-08T19:24:39.273Z,1.07
2018-12-08T19:27:24.123Z,3.52
2018-12-08T19:32:44.059Z,1.42
2018-12-08T19:35:24.456Z,1.87
2018-12-08T19:37:55.429Z,2.27
2018-12-08T19:40:26.455Z,1.30
2018-12-08T19:43:14.668Z,1.55
2018-12-08T19:45:45.719Z,1.37
2018-12-08T19:48:36.838Z,2.55
2018-12-08T19:51:20.944Z,0.68
2018-12-08T19:54:07.680Z,0.72
2018-12-08T19:59:56.975Z,1.30
2018-12-08T20:05:21.178Z,1.82
2018-12-08T20:08:07.851Z,2.52
2018-12-08T20:10:45.561Z,2.47
2018-12-08T20:13:19.527Z,2.22
2018-12-08T20:15:50.465Z,1.65
2018-12-08T20:18:21.333Z,1.15
2018-12-08T20:20:55.325Z,3.02
2018-12-08T20:23:24.198Z,1.47
2018-12-08T20:25:55.188Z,3.98
2018-12-08T20:28:26.088Z,1.47
2018-12-08T20:31:00.312Z,0.85
2018-12-08T20:36:03.169Z,1.95
2018-12-08T20:38:34.118Z,0.80
2018-12-08T20:41:05.329Z,1.70
2018-12-08T20:43:36.609Z,1.25
2018-12-08T20:46:10.337Z,0.80
2018-12-08T20:48:41.439Z,1.45
2018-12-08T20:51:17.766Z,0.80
2018-12-08T20:53:48.996Z,5.00
2018-12-08T20:56:22.874Z,2.05
2018-12-08T20:59:07.409Z,0.78
2018-12-08T21:01:44.481Z,1.82
2018-12-08T21:04:18.084Z,1.00
2018-12-08T21:06:48.909Z,0.70
2018-12-08T21:09:20.086Z,3.45
2018-12-08T21:11:51.492Z,1.55
2018-12-08T21:14:22.801Z,1.70
2018-12-08T21:16:59.645Z,1.72
2018-12-08T21:19:35.725Z,1.10
2018-12-08T21:22:16.783Z,0.70
2018-12-08T21:24:50.115Z,0.80
2018-12-08T21:27:25.474Z,0.72
2018-12-08T21:29:59.474Z,0.70
2018-12-08T21:32:35.750Z,0.80
2018-12-08T21:35:07.123Z,2.60
2018-12-08T21:37:40.884Z,0.60
2018-12-08T21:40:16.500Z,0.70
2018-12-08T21:42:47.786Z,1.15
2018-12-08T21:45:38.564Z,1.62
2018-12-08T21:48:09.490Z,0.90
2018-12-08T21:53:34.501Z,0.60
2018-12-08T21:56:10.678Z,1.00
2018-12-08T21:58:45.718Z,0.62
2018-12-08T22:01:27.791Z,0.90
2018-12-08T22:03:58.300Z,4.50
2018-12-08T22:06:29.477Z,3.90
2018-12-08T22:08:59.089Z,0.50
2018-12-08T22:11:51.002Z,4.08
2018-12-08T22:14:19.764Z,0.70
2018-12-08T22:16:50.820Z,0.80
2018-12-08T22:19:21.850Z,0.95
2018-12-08T22:21:51.204Z,1.80
2018-12-08T22:24:20.386Z,1.02
2018-12-08T22:26:54.218Z,2.45
2018-12-08T22:29:25.517Z,1.10
2018-12-08T22:31:59.465Z,1.45
2018-12-08T22:34:30.103Z,0.98
2018-12-08T22:39:32.984Z,2.95
2018-12-08T22:42:02.101Z,2.05
2018-12-08T22:44:35.910Z,0.68
2018-12-08T22:47:09.223Z,1.98
2018-12-08T22:49:43.311Z,1.62
2018-12-08T22:52:13.799Z,0.90
2018-12-08T22:54:44.207Z,3.75
2018-12-08T22:57:15.244Z,1.60
2018-12-08T22:59:45.759Z,6.87
2018-12-08T23:02:16.267Z,1.80
2018-12-08T23:04:45.159Z,6.30
2018-12-08T23:07:14.053Z,2.20
2018-12-08T23:09:44.854Z,3.22
2018-12-08T23:12:16.062Z,1.82
2018-12-08T23:14:47.235Z,3.30
2018-12-08T23:17:16.331Z,6.15
2018-12-08T23:19:47.459Z,1.90
2018-12-08T23:22:17.966Z,4.42
2018-12-08T23:24:48.931Z,4.53
2018-12-08T23:27:19.962Z,2.87
2018-12-08T23:29:50.962Z,5.40
2018-12-08T23:32:25.028Z,3.92
2018-12-08T23:34:54.205Z,4.53
2018-12-08T23:37:24.589Z,5.10
2018-12-08T23:39:55.400Z,1.55
2018-12-08T23:42:26.375Z,2.50
2018-12-08T23:44:57.466Z,11.97
2018-12-08T23:47:26.559Z,12.75
2018-12-08T23:49:57.510Z,6.55
2018-12-08T23:52:36.552Z,6.12
2018-12-08T23:55:05.536Z,9.23
2018-12-08T23:57:47.519Z,6.12
